Time;durP1;ratioP1;P1;durP2;ratioP2;P2;SDS_P1;SDS_P2;PMS_P1;PMS_P2;Temp;Humidity;BMP_temperature;BMP_pressure;BME280_temperature;BME280_humidity;BME280_pressure;Samples;Min_cycle;Max_cycle;Signal;HPM_P1;HPM_P2
2022/06/22 00:01:49;;;;;;;14.10;10.13;;;;;;;14.80;100.00;101420.22;5031937;28;20033;-74
2022/06/22 00:04:26;;;;;;;16.52;10.82;;;;;;;14.91;100.00;101419.44;5034417;28;20049;-73
2022/06/22 00:06:55;;;;;;;17.85;11.20;;;;;;;14.79;100.00;101415.78;5022468;28;20052;-75
2022/06/22 00:09:32;;;;;;;17.10;10.45;;;;;;;14.69;100.00;101408.66;5033174;28;20100;-75
2022/06/22 00:11:58;;;;;;;16.05;10.00;;;;;;;14.60;100.00;101413.81;5034638;28;20141;-74
2022/06/22 00:14:46;;;;;;;14.45;10.52;;;;;;;14.55;100.00;101421.72;5033049;28;20033;-75
2022/06/22 00:17:19;;;;;;;12.48;10.13;;;;;;;14.54;100.00;101414.66;5027829;28;20098;-76
2022/06/22 00:19:45;;;;;;;13.13;10.43;;;;;;;14.48;100.00;101420.75;5028298;28;20021;-74
2022/06/22 00:22:19;;;;;;;13.77;10.40;;;;;;;14.41;100.00;101410.13;5023308;28;20087;-75
2022/06/22 00:24:44;;;;;;;16.85;11.45;;;;;;;14.41;100.00;101412.75;5030410;28;20026;-75
2022/06/22 00:27:28;;;;;;;17.20;10.75;;;;;;;14.43;100.00;101416.28;5033261;28;20033;-74
2022/06/22 00:30:26;;;;;;;14.98;12.15;;;;;;;14.44;100.00;101421.59;5024634;28;20032;-75
2022/06/22 00:33:01;;;;;;;22.02;12.48;;;;;;;14.47;100.00;101419.00;5024735;28;20129;-75
2022/06/22 00:35:40;;;;;;;20.60;13.18;;;;;;;14.47;100.00;101416.34;5034762;28;20040;-74
2022/06/22 00:38:06;;;;;;;21.40;12.75;;;;;;;14.41;100.00;101416.28;5031278;28;20029;-74
2022/06/22 00:40:36;;;;;;;18.08;12.40;;;;;;;14.36;100.00;101407.41;5034384;28;20022;-75
2022/06/22 00:43:02;;;;;;;21.05;12.43;;;;;;;14.34;100.00;101401.22;5034146;28;20052;-75
2022/06/22 00:45:30;;;;;;;22.33;13.88;;;;;;;14.32;100.00;101397.66;5032481;28;20026;-74
2022/06/22 00:48:12;;;;;;;18.70;12.55;;;;;;;14.29;100.00;101402.94;5018560;28;20030;-75
2022/06/22 00:50:47;;;;;;;18.25;13.27;;;;;;;14.25;100.00;101406.41;5031753;28;20029;-75
2022/06/22 00:53:20;;;;;;;19.40;12.93;;;;;;;14.22;100.00;101401.97;5034150;28;20053;-76
2022/06/22 00:56:20;;;;;;;18.42;12.82;;;;;;;14.24;100.00;101392.28;5032878;28;20432;-75
2022/06/22 00:59:05;;;;;;;18.58;12.95;;;;;;;14.26;100.00;101389.66;5028665;28;20050;-75
2022/06/22 01:01:42;;;;;;;21.25;13.75;;;;;;;14.18;100.00;101383.41;5032869;28;20044;-75
2022/06/22 01:04:21;;;;;;;19.85;13.70;;;;;;;14.16;100.00;101386.00;5033200;28;20083;-75
2022/06/22 01:06:53;;;;;;;21.52;14.15;;;;;;;14.12;100.00;101386.84;5032783;28;20040;-75
2022/06/22 01:09:32;;;;;;;18.90;13.38;;;;;;;14.08;100.00;101382.41;5032993;28;20048;-73
2022/06/22 01:12:16;;;;;;;20.27;13.10;;;;;;;14.05;100.00;101380.59;5032764;28;20041;-74
2022/06/22 01:15:03;;;;;;;25.98;14.30;;;;;;;14.00;100.00;101385.00;5031834;28;20044;-76
2022/06/22 01:17:39;;;;;;;20.90;14.45;;;;;;;13.94;100.00;101390.19;5028813;28;20474;-75
2022/06/22 01:20:43;;;;;;;21.20;14.55;;;;;;;13.89;100.00;101392.81;5028261;28;20102;-75
2022/06/22 01:23:35;;;;;;;24.20;15.45;;;;;;;13.94;100.00;101392.84;5018280;28;20145;-74
2022/06/22 01:26:42;;;;;;;24.17;14.93;;;;;;;13.92;100.00;101387.53;5033138;28;20458;-76
2022/06/22 01:29:13;;;;;;;18.98;14.10;;;;;;;13.91;100.00;101388.41;5016932;28;20048;-75
2022/06/22 01:31:44;;;;;;;18.15;14.25;;;;;;;13.88;100.00;101393.66;5032339;28;20029;-75
2022/06/22 01:34:16;;;;;;;19.42;14.25;;;;;;;13.85;100.00;101388.34;5032290;28;20037;-74
2022/06/22 01:36:41;;;;;;;19.17;14.40;;;;;;;13.88;100.00;101384.84;5031962;28;20029;-74
2022/06/22 01:39:11;;;;;;;20.42;14.50;;;;;;;13.89;100.00;101390.16;5030341;28;20596;-76
2022/06/22 01:41:44;;;;;;;21.02;15.73;;;;;;;13.85;100.00;101395.38;5027434;28;20037;-75
2022/06/22 01:44:15;;;;;;;23.92;15.30;;;;;;;13.80;100.00;101401.50;5022766;28;20419;-75
2022/06/22 01:47:08;;;;;;;21.27;14.90;;;;;;;13.80;100.00;101401.50;5030227;28;20036;-75
2022/06/22 01:49:42;;;;;;;26.20;15.00;;;;;;;13.76;100.00;101414.69;5030583;28;20069;-75
2022/06/22 01:52:17;;;;;;;21.48;14.50;;;;;;;13.66;100.00;101426.91;5031952;28;20430;-75
2022/06/22 01:54:55;;;;;;;23.17;15.23;;;;;;;13.64;100.00;101424.22;5033098;28;20028;-76
2022/06/22 01:57:35;;;;;;;21.70;15.30;;;;;;;13.62;100.00;101428.59;5029678;28;20485;-74
2022/06/22 02:00:17;;;;;;;21.63;14.38;;;;;;;13.53;100.00;101430.25;5031563;28;20096;-75
2022/06/22 02:02:52;;;;;;;18.23;14.55;;;;;;;13.47;100.00;101431.94;5030712;28;20068;-75
2022/06/22 02:05:33;;;;;;;21.58;14.40;;;;;;;13.49;100.00;101424.88;5026014;28;20132;-76
2022/06/22 02:08:10;;;;;;;20.40;13.52;;;;;;;13.55;100.00;101410.00;5032159;28;20377;-75
2022/06/22 02:10:44;;;;;;;22.80;14.10;;;;;;;13.55;100.00;101402.06;5023329;28;20025;-74
2022/06/22 02:13:31;;;;;;;20.45;14.75;;;;;;;13.49;100.00;101403.75;5025406;28;20029;-74
2022/06/22 02:16:05;;;;;;;17.92;14.70;;;;;;;13.43;100.00;101408.97;5032367;28;20026;-75
2022/06/22 02:18:35;;;;;;;18.13;13.68;;;;;;;13.45;100.00;101406.34;5030583;28;20827;-75
2022/06/22 02:21:15;;;;;;;23.95;16.33;;;;;;;13.48;100.00;101411.66;5032112;28;20523;-74
2022/06/22 02:23:41;;;;;;;24.20;15.45;;;;;;;13.52;100.00;101410.81;5046040;28;20053;-75
2022/06/22 02:26:24;;;;;;;22.30;16.52;;;;;;;13.59;100.00;101420.66;5032477;28;20067;-74
2022/06/22 02:28:50;;;;;;;19.92;15.65;;;;;;;13.59;100.00;101409.16;5030879;28;20037;-75
2022/06/22 02:31:18;;;;;;;31.65;16.25;;;;;;;13.65;100.00;101396.03;5032204;28;20484;-75
2022/06/22 02:33:49;;;;;;;23.45;16.30;;;;;;;13.57;100.00;101389.75;5029918;28;20108;-75
2022/06/22 02:36:15;;;;;;;19.60;16.38;;;;;;;13.57;100.00;101395.03;5032498;28;20021;-75
2022/06/22 02:38:44;;;;;;;26.30;16.08;;;;;;;13.49;100.00;101387.88;5030977;28;20454;-76
2022/06/22 02:46:52;;;;;;;25.35;16.10;;;;;;;13.54;100.00;101357.97;5018760;28;20446;-75
2022/06/22 02:49:30;;;;;;;23.30;16.30;;;;;;;13.43;100.00;101366.66;5027610;28;20049;-75
2022/06/22 02:51:56;;;;;;;29.52;17.60;;;;;;;13.40;100.00;101364.00;5030997;28;20025;-73
2022/06/22 02:54:39;;;;;;;24.15;16.38;;;;;;;13.35;100.00;101354.16;5031926;28;20049;-76
2022/06/22 02:57:21;;;;;;;24.33;17.42;;;;;;;13.46;100.00;101353.47;5031561;28;20063;-75
2022/06/22 02:59:48;;;;;;;29.02;16.98;;;;;;;13.46;100.00;101345.53;5031462;28;20409;-74
2022/06/22 03:02:16;;;;;;;28.45;16.52;;;;;;;13.40;100.00;101342.84;5031149;28;20469;-75
2022/06/22 03:04:44;;;;;;;25.85;17.02;;;;;;;13.35;100.00;101340.94;5027544;28;20359;-75
2022/06/22 03:07:10;;;;;;;22.85;15.75;;;;;;;13.33;100.00;101348.84;5022144;28;20160;-75
2022/06/22 03:09:38;;;;;;;25.25;16.70;;;;;;;13.28;100.00;101347.91;5030902;28;20029;-76
2022/06/22 03:12:04;;;;;;;25.58;15.73;;;;;;;13.22;100.00;101334.63;5032149;28;20040;-75
2022/06/22 03:14:54;;;;;;;23.08;15.13;;;;;;;13.19;100.00;101334.59;5030807;28;20086;-76
2022/06/22 03:17:33;;;;;;;30.35;15.20;;;;;;;13.27;100.00;101343.50;5032252;28;20092;-75
2022/06/22 03:20:04;;;;;;;21.95;15.60;;;;;;;13.26;100.00;101345.25;5032701;28;20033;-76
2022/06/22 03:22:34;;;;;;;45.88;18.70;;;;;;;13.17;100.00;101331.91;5035528;28;20202;-75
2022/06/22 03:25:02;;;;;;;25.55;16.35;;;;;;;13.18;100.00;101343.38;5036041;28;20036;-76
2022/06/22 03:27:35;;;;;;;22.30;16.35;;;;;;;13.10;100.00;101346.81;5029887;28;20044;-76
2022/06/22 03:30:14;;;;;;;26.98;15.52;;;;;;;13.18;100.00;101343.38;5031706;28;20032;-76
2022/06/22 03:32:52;;;;;;;21.05;15.73;;;;;;;13.14;100.00;101348.63;5031526;28;20075;-76
2022/06/22 03:35:36;;;;;;;24.10;15.55;;;;;;;13.10;100.00;101361.75;5035216;28;20018;-76
2022/06/22 03:38:07;;;;;;;24.90;15.90;;;;;;;13.06;100.00;101360.84;5034307;28;20025;-76
2022/06/22 03:40:58;;;;;;;22.58;15.05;;;;;;;13.12;100.00;101360.91;5035542;28;20021;-76
2022/06/22 03:43:41;;;;;;;24.30;16.08;;;;;;;13.03;100.00;101360.78;5032115;28;20045;-76
2022/06/22 03:46:15;;;;;;;24.85;15.82;;;;;;;12.95;100.00;101354.50;5033862;28;20029;-75
2022/06/22 03:48:49;;;;;;;22.70;15.88;;;;;;;12.98;100.00;101358.09;5030584;28;20021;-76
2022/06/22 03:51:21;;;;;;;23.42;14.93;;;;;;;13.02;100.00;101353.72;5033730;28;20474;-75
2022/06/22 03:54:06;;;;;;;20.73;15.40;;;;;;;13.02;100.00;101359.00;5033351;28;20497;-75
2022/06/22 03:56:50;;;;;;;22.77;14.57;;;;;;;13.04;100.00;101366.97;5030562;28;20056;-76
2022/06/22 03:59:16;;;;;;;22.48;15.57;;;;;;;13.04;100.00;101373.13;5033702;28;20029;-76
2022/06/22 04:01:42;;;;;;;19.70;14.60;;;;;;;13.04;100.00;101370.50;5034115;28;20377;-76
2022/06/22 04:04:08;;;;;;;19.25;14.27;;;;;;;13.16;100.00;101367.16;5032757;28;20059;-76
2022/06/22 04:06:43;;;;;;;23.88;15.38;;;;;;;13.13;100.00;101364.44;5032836;28;20100;-76
2022/06/22 04:09:18;;;;;;;20.90;14.80;;;;;;;13.07;100.00;101373.16;5034688;28;20477;-76
2022/06/22 04:11:54;;;;;;;21.30;14.90;;;;;;;13.25;100.00;101371.66;5033324;28;20033;-76
2022/06/22 04:14:32;;;;;;;26.45;16.60;;;;;;;13.35;100.00;101381.50;5031099;28;20033;-76
2022/06/22 04:17:07;;;;;;;22.05;15.27;;;;;;;13.47;100.00;101373.78;5031502;28;20095;-75
2022/06/22 04:19:39;;;;;;;20.58;15.93;;;;;;;13.47;100.00;101367.59;5034054;28;20037;-75
2022/06/22 04:22:18;;;;;;;21.58;16.08;;;;;;;13.55;100.00;101371.22;5033656;28;20032;-75
2022/06/22 04:24:52;;;;;;;23.45;15.43;;;;;;;13.62;100.00;101370.44;5034879;28;20037;-76
2022/06/22 04:27:26;;;;;;;23.42;16.42;;;;;;;13.62;100.00;101377.50;5034182;28;20079;-75
2022/06/22 04:30:12;;;;;;;25.92;17.17;;;;;;;13.66;100.00;101380.19;5029067;28;20469;-74
2022/06/22 04:32:44;;;;;;;24.17;16.70;;;;;;;13.80;100.00;101372.41;5032817;28;20484;-74
2022/06/22 04:35:27;;;;;;;29.05;17.13;;;;;;;13.83;100.00;101369.78;5029353;28;20033;-75
2022/06/22 04:38:01;;;;;;;29.42;17.50;;;;;;;13.90;100.00;101367.22;5031013;28;20040;-75
2022/06/22 04:40:50;;;;;;;28.50;17.70;;;;;;;13.91;100.00;101369.88;5034065;28;20037;-75
2022/06/22 04:43:16;;;;;;;29.75;18.95;;;;;;;13.93;100.00;101373.44;5034621;28;20017;-76
2022/06/22 04:45:43;;;;;;;24.10;17.75;;;;;;;13.99;100.00;101368.19;5030724;28;20449;-76
2022/06/22 04:48:11;;;;;;;30.65;19.00;;;;;;;14.02;100.00;101372.66;5032241;28;20030;-76
2022/06/22 04:50:40;;;;;;;28.17;18.33;;;;;;;14.01;100.00;101370.84;5033287;28;20081;-75
2022/06/22 04:53:10;;;;;;;27.33;18.20;;;;;;;14.01;100.00;101373.50;5033645;28;20493;-75
2022/06/22 04:55:38;;;;;;;34.13;17.35;;;;;;;14.07;100.00;101381.53;5030237;28;20465;-76
2022/06/22 04:58:21;;;;;;;26.35;17.55;;;;;;;14.11;100.00;101380.69;5032252;28;20056;-76
2022/06/22 05:00:48;;;;;;;21.80;16.00;;;;;;;14.17;100.00;101377.22;5025983;28;20260;-76
2022/06/22 05:03:14;;;;;;;28.60;17.88;;;;;;;14.24;100.00;101383.47;5033101;28;20033;-77
2022/06/22 05:05:40;;;;;;;25.50;16.70;;;;;;;14.23;100.00;101382.59;5030701;28;20048;-75
2022/06/22 05:08:24;;;;;;;30.10;16.60;;;;;;;14.32;100.00;101392.34;5032468;28;20108;-73
2022/06/22 05:10:49;;;;;;;;;;;;;;;14.41;100.00;101391.56;5026207;28;20036;-76
2022/06/22 05:13:19;;;;;;;23.50;16.10;;;;;;;14.50;100.00;101396.94;5033517;28;19944;-75
2022/06/22 05:15:48;;;;;;;24.60;15.63;;;;;;;14.54;100.00;101406.72;5032321;28;20025;-75
2022/06/22 05:18:18;;;;;;;26.02;16.52;;;;;;;14.61;100.00;101400.59;5019871;28;20025;-75
2022/06/22 05:20:48;;;;;;;25.48;16.40;;;;;;;14.65;100.00;101396.25;5025847;28;20029;-76
2022/06/22 05:23:16;;;;;;;27.60;15.77;;;;;;;14.69;100.00;101395.41;5033869;28;20060;-75
2022/06/22 05:25:45;;;;;;;27.25;15.55;;;;;;;14.75;100.00;101403.38;5033147;28;20504;-75
2022/06/22 05:28:16;;;;;;;25.63;16.13;;;;;;;14.86;100.00;101405.25;5030515;28;20492;-75
2022/06/22 05:30:57;;;;;;;27.23;15.82;;;;;;;14.94;100.00;101404.41;5024243;28;20026;-75
2022/06/22 05:33:25;;;;;;;23.77;16.58;;;;;;;15.04;100.00;101404.47;5029843;28;20025;-76
2022/06/22 05:36:03;;;;;;;30.05;16.05;;;;;;;15.09;100.00;101408.06;5033462;28;20472;-75
2022/06/22 05:38:30;;;;;;;23.85;16.25;;;;;;;15.12;100.00;101416.91;5030954;28;20033;-76
2022/06/22 05:40:57;;;;;;;31.52;16.77;;;;;;;15.20;100.00;101416.09;5018998;28;20089;-76
2022/06/22 05:43:24;;;;;;;24.13;17.00;;;;;;;15.14;100.00;101417.81;5033323;28;20469;-76
2022/06/22 05:45:56;;;;;;;27.50;16.20;;;;;;;15.14;100.00;101420.47;5029817;28;20159;-76
2022/06/22 05:48:24;;;;;;;27.67;15.63;;;;;;;15.16;100.00;101434.59;5032574;28;20073;-75
2022/06/22 05:50:55;;;;;;;23.00;15.35;;;;;;;15.21;100.00;101433.78;5030502;28;20064;-76
2022/06/22 05:53:47;;;;;;;24.88;16.42;;;;;;;15.24;100.00;101434.66;5031604;28;20171;-76
2022/06/22 05:56:19;;;;;;;19.02;15.63;;;;;;;15.32;100.00;101432.06;5031105;28;20032;-75
2022/06/22 05:58:59;;;;;;;24.27;14.90;;;;;;;15.40;100.00;101433.00;5013023;28;20084;-76
2022/06/22 06:01:43;;;;;;;20.02;14.63;;;;;;;15.51;100.00;101425.97;5029281;28;20024;-74
2022/06/22 06:04:37;;;;;;;23.67;14.05;;;;;;;15.62;100.00;101431.34;5033565;28;20034;-75
2022/06/22 06:07:30;;;;;;;19.17;13.10;;;;;;;15.62;100.00;101430.47;5014065;28;20042;-76
2022/06/22 06:09:56;;;;;;;20.42;13.40;;;;;;;15.70;100.00;101427.88;5029550;28;20033;-76
2022/06/22 06:12:30;;;;;;;17.77;13.27;;;;;;;15.77;100.00;101422.56;5033377;28;20040;-75
2022/06/22 06:14:55;;;;;;;21.73;13.63;;;;;;;15.82;100.00;101418.22;5031069;28;20492;-75
2022/06/22 06:17:38;;;;;;;22.70;13.82;;;;;;;15.89;100.00;101418.25;5029399;28;20029;-74
2022/06/22 06:20:06;;;;;;;18.85;13.85;;;;;;;15.97;100.00;101429.78;5029153;28;20099;-74
2022/06/22 06:22:35;;;;;;;20.80;13.27;;;;;;;16.01;100.00;101427.13;5029808;28;20098;-75
2022/06/22 06:28:03;;;;;;;20.23;13.18;;;;;;;16.12;100.00;101418.31;5032511;28;20580;-75
2022/06/22 06:30:35;;;;;;;19.70;13.45;;;;;;;16.23;100.00;101421.88;5032370;28;20029;-75
2022/06/22 06:33:12;;;;;;;22.50;12.57;;;;;;;16.30;100.00;101425.44;5033100;28;20469;-75
2022/06/22 06:35:52;;;;;;;20.83;12.13;;;;;;;16.34;100.00;101424.56;5032624;28;20033;-75
2022/06/22 06:38:38;;;;;;;21.23;11.73;;;;;;;16.35;100.00;101429.88;5032501;28;20079;-75
2022/06/22 06:41:04;;;;;;;20.00;11.43;;;;;;;16.47;100.00;101421.06;5032701;28;20388;-76
2022/06/22 06:43:37;;;;;;;17.23;10.15;;;;;;;16.60;100.00;101429.03;5032955;28;20128;-75
2022/06/22 06:46:12;;;;;;;15.55;10.15;;;;;;;16.67;100.00;101425.47;5032125;28;20029;-75
2022/06/22 06:48:40;;;;;;;15.43;9.80;;;;;;;16.76;100.00;101414.84;5032566;28;20087;-75
2022/06/22 06:51:06;;;;;;;19.50;8.82;;;;;;;16.81;100.00;101415.75;5032728;28;20458;-75
2022/06/22 06:53:41;;;;;;;17.23;8.73;;;;;;;16.95;100.00;101413.13;5032931;28;20041;-75
2022/06/22 06:56:33;;;;;;;13.40;7.15;;;;;;;17.04;100.00;101401.59;5034385;28;20017;-76
2022/06/22 06:59:02;;;;;;;10.73;6.10;;;;;;;17.08;100.00;101403.38;5030421;28;20148;-74
2022/06/22 07:01:32;;;;;;;12.40;6.70;;;;;;;17.25;100.00;101413.09;5031723;28;20112;-75
2022/06/22 07:04:07;;;;;;;13.88;6.82;;;;;;;17.33;100.00;101398.00;5036424;28;20392;-75
2022/06/22 07:06:33;;;;;;;9.80;6.68;;;;;;;17.43;100.00;101390.88;5036528;28;20021;-75
2022/06/22 07:08:58;;;;;;;8.73;6.22;;;;;;;17.47;100.00;101390.88;5035721;28;20033;-76
2022/06/22 07:11:46;;;;;;;9.13;5.85;;;;;;;17.59;100.00;101391.69;5035557;28;20038;-75
2022/06/22 07:14:19;;;;;;;10.05;5.88;;;;;;;17.71;100.00;101391.66;5027349;28;20060;-75
2022/06/22 07:16:46;;;;;;;12.18;7.03;;;;;;;17.75;100.00;101393.41;5035217;28;20478;-76
2022/06/22 07:19:22;;;;;;;11.52;5.72;;;;;;;17.87;100.00;101388.03;5035389;28;20462;-73
2022/06/22 07:22:00;;;;;;;12.73;6.60;;;;;;;18.00;100.00;101388.00;5035941;28;20049;-69
2022/06/22 07:24:33;;;;;;;12.77;6.45;;;;;;;18.07;100.00;101389.75;5033335;28;20025;-72
2022/06/22 07:27:21;;;;;;;9.70;5.78;;;;;;;18.11;100.00;101393.25;5027346;28;20469;-73
2022/06/22 07:30:04;;;;;;;11.52;5.35;;;;;;;18.25;100.00;101396.72;5023912;28;20033;-73
2022/06/22 07:32:46;;;;;;;10.13;5.15;;;;;;;18.37;100.00;101396.66;5032277;28;20469;-73
2022/06/22 07:35:18;;;;;;;9.43;5.13;;;;;;;18.45;100.00;101401.94;5026430;28;20493;-71
2022/06/22 07:38:08;;;;;;;9.10;6.05;;;;;;;18.52;100.00;101398.31;5025647;28;20033;-74
2022/06/22 07:40:34;;;;;;;11.35;5.50;;;;;;;18.50;100.00;101402.78;5026441;28;20041;-71
2022/06/22 07:43:00;;;;;;;10.63;5.55;;;;;;;18.60;100.00;101405.34;5029257;28;20075;-72
2022/06/22 07:45:28;;;;;;;12.65;5.65;;;;;;;18.72;100.00;101389.28;5026699;28;20025;-72
2022/06/22 07:48:10;;;;;;;7.85;5.35;;;;;;;18.76;100.00;101385.69;5026628;28;20501;-72
2022/06/22 07:50:43;;;;;;;12.95;5.43;;;;;;;18.89;100.00;101393.63;5027625;28;20028;-73
2022/06/22 07:53:25;;;;;;;11.10;5.50;;;;;;;18.89;100.00;101385.63;5028820;28;20041;-72
2022/06/22 07:56:19;;;;;;;17.10;5.85;;;;;;;18.89;100.00;101385.63;5029868;28;20029;-74
2022/06/22 07:59:08;;;;;;;10.45;5.18;;;;;;;18.94;99.50;101375.78;5020741;28;20044;-74
2022/06/22 08:01:40;;;;;;;16.25;5.88;;;;;;;18.97;100.00;101381.09;5031028;28;20075;-73
2022/06/22 08:04:37;;;;;;;7.90;4.65;;;;;;;19.08;100.00;101386.31;5032593;28;20108;-73
2022/06/22 08:07:09;;;;;;;9.15;4.97;;;;;;;19.11;100.00;101381.81;5035160;28;20491;-73
2022/06/22 08:10:08;;;;;;;10.07;5.00;;;;;;;19.16;98.65;101385.31;5035438;28;20021;-71
2022/06/22 08:12:44;;;;;;;10.45;4.75;;;;;;;19.30;98.41;101384.28;5035724;28;20033;-71
2022/06/22 08:15:17;;;;;;;10.05;5.28;;;;;;;19.43;98.24;101387.72;5029195;28;20048;-72
2022/06/22 08:17:46;;;;;;;9.18;4.25;;;;;;;19.58;97.20;101394.66;5033356;28;20037;-72
2022/06/22 08:20:16;;;;;;;10.65;4.88;;;;;;;19.63;95.03;101390.13;5034513;28;20045;-72
2022/06/22 08:22:44;;;;;;;7.07;4.30;;;;;;;19.71;94.73;101390.94;5034888;28;20038;-71
2022/06/22 08:25:10;;;;;;;7.95;3.92;;;;;;;19.90;94.82;101382.72;5030646;28;20033;-71
2022/06/22 08:27:37;;;;;;;7.40;4.50;;;;;;;19.95;90.31;101386.22;5035004;28;20029;-72
2022/06/22 08:30:04;;;;;;;10.90;3.92;;;;;;;20.05;91.10;101386.06;5035021;28;20436;-73
2022/06/22 08:32:38;;;;;;;11.85;4.57;;;;;;;20.18;91.00;101392.13;5032402;28;20396;-73
2022/06/22 08:35:10;;;;;;;8.73;5.38;;;;;;;20.16;92.64;101393.91;5034108;28;20083;-73
2022/06/22 08:38:01;;;;;;;11.18;5.20;;;;;;;20.13;92.66;101390.41;5034352;28;20036;-72
2022/06/22 08:40:59;;;;;;;12.07;5.68;;;;;;;20.24;90.46;101392.91;5027170;28;20611;-72
2022/06/22 08:43:36;;;;;;;7.15;5.07;;;;;;;20.38;88.03;101401.63;5031452;28;20041;-72
2022/06/22 08:46:46;;;;;;;14.52;5.40;;;;;;;20.35;92.32;101407.03;5032998;28;20026;-72
2022/06/22 08:49:34;;;;;;;10.38;5.25;;;;;;;20.43;90.20;101394.41;5030420;28;20029;-72
2022/06/22 08:52:12;;;;;;;10.05;5.03;;;;;;;20.54;87.02;101392.44;5032169;28;20033;-71
2022/06/22 08:54:56;;;;;;;9.40;5.60;;;;;;;20.63;83.48;101401.22;5029062;28;20036;-73
2022/06/22 08:57:26;;;;;;;7.75;4.93;;;;;;;20.78;83.20;101395.66;5033263;28;20025;-73
2022/06/22 09:00:05;;;;;;;11.38;4.75;;;;;;;20.89;79.92;101401.72;5034307;28;20362;-72
2022/06/22 09:02:55;;;;;;;6.57;3.67;;;;;;;21.05;76.37;101405.00;5021520;28;20025;-72
2022/06/22 09:05:39;;;;;;;8.40;4.63;;;;;;;21.17;74.34;101409.22;5034353;28;20385;-72
2022/06/22 09:08:05;;;;;;;6.70;4.70;;;;;;;21.26;73.28;101415.34;5033854;28;20029;-72
2022/06/22 09:10:45;;;;;;;12.52;5.20;;;;;;;21.33;74.42;101408.94;5033795;28;20033;-72
2022/06/22 09:13:29;;;;;;;8.35;5.10;;;;;;;21.46;70.55;101407.78;5033210;28;20033;-73
2022/06/22 09:16:30;;;;;;;8.07;4.97;;;;;;;21.49;68.56;101399.69;5033075;28;20040;-72
2022/06/22 09:18:58;;;;;;;13.25;6.70;;;;;;;21.63;70.96;101407.47;5022654;28;20029;-72
2022/06/22 09:21:37;;;;;;;11.38;6.30;;;;;;;21.69;72.43;101403.78;5033110;28;20037;-73
2022/06/22 09:24:15;;;;;;;10.05;4.15;;;;;;;21.73;66.90;101398.34;5034159;28;20381;-73
2022/06/22 09:26:52;;;;;;;11.98;5.45;;;;;;;21.78;68.44;101400.91;5033662;28;20109;-73
2022/06/22 09:29:47;;;;;;;9.27;4.72;;;;;;;21.69;70.20;101399.31;5032401;28;20496;-73
2022/06/22 09:32:42;;;;;;;7.93;4.90;;;;;;;21.84;68.28;101406.16;5033613;28;20041;-72
2022/06/22 09:35:13;;;;;;;6.78;3.85;;;;;;;21.98;60.66;101392.44;5012782;28;20049;-72
2022/06/22 09:37:57;;;;;;;6.95;4.70;;;;;;;22.06;65.10;101394.97;5032393;28;20032;-72
2022/06/22 09:40:41;;;;;;;;;;;;;;;22.16;63.15;101393.81;5033884;28;20030;-72
2022/06/22 09:43:32;;;;;;;15.27;5.38;;;;;;;22.36;61.12;101392.53;5022896;28;19920;-72
2022/06/22 09:46:26;;;;;;;11.63;4.63;;;;;;;22.37;63.77;101394.28;5031659;28;20033;-72
2022/06/22 09:49:00;;;;;;;6.07;4.40;;;;;;;22.55;62.26;101393.81;5032704;28;20358;-71
2022/06/22 09:52:15;;;;;;;9.32;4.30;;;;;;;22.71;62.37;101402.38;5032541;28;20127;-71
2022/06/22 09:57:54;;;;;;;7.10;3.80;;;;;;;23.00;58.50;101403.41;4991958;28;20398;-72
2022/06/22 10:00:42;;;;;;;9.95;3.83;;;;;;;23.10;57.60;101398.72;5024411;28;20493;-71
2022/06/22 10:03:16;;;;;;;6.47;3.60;;;;;;;23.15;58.94;101404.84;5033483;28;20124;-71
2022/06/22 10:06:09;;;;;;;6.07;3.45;;;;;;;23.31;57.37;101396.38;5033236;28;20366;-71
2022/06/22 10:08:48;;;;;;;6.57;3.60;;;;;;;23.42;57.25;101385.34;5029976;28;20130;-72
2022/06/22 10:11:24;;;;;;;10.90;3.45;;;;;;;23.38;57.51;101395.28;5031574;28;20424;-72
2022/06/22 10:14:23;;;;;;;8.40;3.45;;;;;;;23.56;57.54;101400.13;5031459;28;20091;-72
2022/06/22 10:17:18;;;;;;;8.15;3.58;;;;;;;23.65;58.44;101403.47;4998722;28;20136;-72
2022/06/22 10:20:01;;;;;;;8.10;3.67;;;;;;;23.72;53.59;101384.41;4996429;28;20057;-72
2022/06/22 10:22:38;;;;;;;8.60;3.35;;;;;;;23.76;55.08;101387.91;5032949;28;20037;-71
2022/06/22 10:25:33;;;;;;;5.40;2.70;;;;;;;23.78;50.97;101391.44;5031915;28;20041;-71
2022/06/22 10:28:29;;;;;;;10.75;3.20;;;;;;;23.94;52.19;101385.63;5031792;28;20048;-72
2022/06/22 10:31:26;;;;;;;6.70;2.90;;;;;;;23.71;47.94;101382.69;5032551;28;20107;-71
2022/06/22 10:34:15;;;;;;;7.18;2.83;;;;;;;24.06;51.06;101383.47;5031645;28;20392;-72
2022/06/22 10:36:59;;;;;;;10.60;2.95;;;;;;;24.38;55.10;101386.03;5033000;28;20025;-72
2022/06/22 10:39:34;;;;;;;6.95;3.45;;;;;;;24.38;49.75;101377.97;5032793;28;20083;-72
2022/06/22 10:45:24;;;;;;;5.55;2.67;;;;;;;24.68;46.80;101375.22;5022400;28;20531;-71
2022/06/22 10:48:02;;;;;;;5.70;3.33;;;;;;;24.87;50.11;101376.31;5032239;28;20037;-72
2022/06/22 10:50:44;;;;;;;5.13;3.13;;;;;;;24.83;48.49;101379.19;5032705;28;20036;-72
2022/06/22 10:53:22;;;;;;;8.50;3.03;;;;;;;24.72;46.59;101376.88;5032080;28;20098;-72
2022/06/22 10:56:12;;;;;;;5.68;2.80;;;;;;;25.16;50.69;101387.00;5031079;28;20040;-71
2022/06/22 10:58:56;;;;;;;7.18;2.78;;;;;;;25.12;47.84;101375.44;5032239;28;20030;-72
2022/06/22 11:01:46;;;;;;;6.68;3.22;;;;;;;25.24;50.28;101383.13;5030985;28;20166;-71
2022/06/22 11:04:33;;;;;;;10.18;3.97;;;;;;;25.30;50.00;101370.34;5023478;28;20224;-72
2022/06/22 11:07:19;;;;;;;10.68;2.97;;;;;;;25.59;50.65;101369.28;5032663;28;20359;-73
2022/06/22 11:10:10;;;;;;;4.97;2.30;;;;;;;25.79;47.62;101360.44;5032105;28;20426;-72
2022/06/22 11:12:57;;;;;;;11.18;4.30;;;;;;;25.80;49.87;101364.91;5021664;28;20466;-72
2022/06/22 11:15:41;;;;;;;7.95;3.38;;;;;;;25.88;49.31;101365.47;5031588;28;20040;-72
2022/06/22 11:18:50;;;;;;;4.82;2.95;;;;;;;26.11;51.79;101368.22;5027354;28;20036;-72
2022/06/22 11:21:27;;;;;;;8.55;3.40;;;;;;;26.37;49.18;101362.63;5031998;28;20025;-71
2022/06/22 11:23:58;;;;;;;7.78;3.70;;;;;;;26.45;48.34;101364.13;5030525;28;20033;-71
2022/06/22 11:33:34;;;;;;;11.68;3.70;;;;;;;26.55;46.48;101352.88;5028458;28;20125;-72
2022/06/22 11:36:15;;;;;;;5.40;3.35;;;;;;;26.75;47.92;101354.75;5024089;28;20025;-72
2022/06/22 11:38:54;;;;;;;9.52;3.35;;;;;;;26.59;47.90;101343.72;5032916;28;20044;-70
2022/06/22 11:41:44;;;;;;;5.20;2.65;;;;;;;27.13;49.06;101343.22;5020769;28;20037;-70
2022/06/22 11:44:25;;;;;;;7.07;2.90;;;;;;;27.26;46.00;101347.09;5026062;28;20037;-72
2022/06/22 11:46:54;;;;;;;11.20;3.13;;;;;;;27.23;47.08;101347.25;5034644;28;20029;-72
2022/06/22 11:49:28;;;;;;;7.80;3.03;;;;;;;27.27;46.62;101340.75;5033933;28;20029;-72
2022/06/22 11:52:03;;;;;;;5.30;2.72;;;;;;;27.49;45.01;101341.63;5034515;28;20029;-72
2022/06/22 11:54:59;;;;;;;7.15;2.40;;;;;;;27.62;44.39;101334.69;5029490;28;20036;-72
2022/06/22 11:57:48;;;;;;;9.70;1.92;;;;;;;27.58;45.04;101333.97;5033806;28;20041;-71
2022/06/22 12:00:34;;;;;;;4.82;2.30;;;;;;;27.64;44.65;101340.91;5032857;28;20460;-71
2022/06/22 12:03:24;;;;;;;6.35;2.53;;;;;;;27.37;44.02;101333.13;5035269;28;20021;-71
2022/06/22 12:06:18;;;;;;;8.07;2.40;;;;;;;27.70;42.13;101329.81;5033587;28;20026;-71
2022/06/22 12:09:02;;;;;;;3.75;1.80;;;;;;;27.70;40.42;101328.91;5033982;28;20087;-71
2022/06/22 12:11:51;;;;;;;3.85;1.25;;;;;;;27.89;38.82;101318.97;5035289;28;20515;-72
2022/06/22 12:17:58;;;;;;;4.53;1.35;;;;;;;27.72;36.71;101321.63;5030428;28;20064;-72
2022/06/22 12:20:47;;;;;;;5.47;1.90;;;;;;;27.95;36.98;101317.78;5014488;28;20111;-72
2022/06/22 12:23:35;;;;;;;2.63;1.08;;;;;;;28.10;33.35;101321.59;5002047;28;20044;-72